KOGD/OGD METAR and TAF weather

Enter ICAO airport designator
Station Type Date Time Source
KOGD METAR 2019/12/08 10:53 UTC NOAA

KOGD 081053Z AUTO 19003KT 3SM BR FEW002 FEW075 OVC110 M02/M02 A2988 RMK AO2 SLP130 T10171017 $


Station Type Date Time Source
KOGD Decoded METAR 2019/12/08 10:53 UTC NOAA

OGDEN-HINCKLEY AIRPORT, UT, United States (KOGD) 41-12N 112-01W 1353M
Dec 08, 2019 - 05:53 AM EST / 2019.12.08 1053 UTC
Wind: from the S (190 degrees) at 3 MPH (3 KT):0
Visibility: 3 mile(s):0
Sky conditions: overcast
Weather: mist
Temperature: 28.9 F (-1.7 C)
Dew Point: 28.9 F (-1.7 C)
Relative Humidity: 100%
Pressure (altimeter): 29.88 in. Hg (1011 hPa)
ob: KOGD 081053Z AUTO 19003KT 3SM BR FEW002 FEW075 OVC110 M02/M02 A2988 RMK AO2 SLP130 T10171017
cycle: 11

Station Type Date Time Source
KOGD TAF 2019/12/08 12:22 UTC NOAA

TAF KOGD 081120Z 0812/0912 32005KT 3SM BR VCSH SCT030 BKN060
FM081400 18005KT 3SM -RASN BR SCT007 BKN015
FM081800 25007KT P6SM VCSH SCT020 BKN040

Example: see airport list